createdAt,value
2023-04-03T00:00:35.324Z,0.21
2023-04-03T00:01:34.899Z,0.32
2023-04-03T00:02:34.937Z,0.15
2023-04-03T00:03:34.879Z,0.23
2023-04-03T00:04:34.886Z,0.25
2023-04-03T00:05:34.842Z,0.20
2023-04-03T00:06:34.827Z,0.35
2023-04-03T00:07:34.820Z,0.35
2023-04-03T00:08:34.803Z,0.32
2023-04-03T00:09:34.787Z,0.49
2023-04-03T00:10:34.978Z,0.22
2023-04-03T00:11:34.760Z,0.30
2023-04-03T00:12:34.782Z,0.29
2023-04-03T00:13:34.739Z,0.15
2023-04-03T00:14:34.743Z,0.40
2023-04-03T00:15:34.719Z,0.21
2023-04-03T00:16:34.730Z,0.17
2023-04-03T00:17:34.716Z,0.40
2023-04-03T00:18:34.669Z,0.33
2023-04-03T00:19:34.697Z,0.17
2023-04-03T00:20:35.290Z,0.40
2023-04-03T00:21:34.743Z,0.28
2023-04-03T00:22:34.777Z,0.26
2023-04-03T00:23:34.790Z,0.24
2023-04-03T00:24:34.818Z,0.29
2023-04-03T00:25:34.835Z,0.28
2023-04-03T00:26:34.862Z,0.16
2023-04-03T00:27:34.874Z,0.31
2023-04-03T00:28:34.919Z,0.19
2023-04-03T00:29:34.906Z,0.51
2023-04-03T00:30:35.239Z,0.45
2023-04-03T00:31:34.988Z,0.26
2023-04-03T00:32:34.974Z,0.34
2023-04-03T00:33:34.983Z,0.17
2023-04-03T00:34:34.986Z,0.39
2023-04-03T00:35:35.188Z,0.23
2023-04-03T00:36:35.117Z,0.43
2023-04-03T00:37:35.724Z,0.23
2023-04-03T00:38:35.065Z,0.31
2023-04-03T00:39:35.077Z,0.13
2023-04-03T00:40:35.287Z,0.26
2023-04-03T00:41:35.972Z,0.33
2023-04-03T00:42:35.104Z,0.23
2023-04-03T00:43:35.073Z,0.24
2023-04-03T00:44:35.079Z,0.23
2023-04-03T00:45:35.042Z,0.43
2023-04-03T00:46:35.049Z,0.39
2023-04-03T00:47:35.136Z,0.42
2023-04-03T00:48:34.982Z,0.38
2023-04-03T00:49:34.966Z,0.43
2023-04-03T00:50:35.140Z,0.29
2023-04-03T00:51:34.922Z,0.15
2023-04-03T00:52:34.901Z,0.22
2023-04-03T00:53:34.889Z,0.49
2023-04-03T00:54:34.866Z,0.25
2023-04-03T00:55:34.864Z,0.19
2023-04-03T00:56:34.856Z,0.39
2023-04-03T00:57:34.825Z,0.26
2023-04-03T00:58:34.790Z,0.20
2023-04-03T00:59:34.772Z,0.19
2023-04-03T01:00:34.999Z,0.41
2023-04-03T01:01:34.774Z,0.30
2023-04-03T01:02:34.790Z,0.19
2023-04-03T01:03:34.711Z,0.22
2023-04-03T01:04:34.770Z,0.20
2023-04-03T01:05:34.658Z,0.29
2023-04-03T01:06:34.641Z,0.38
2023-04-03T01:07:34.625Z,0.37
2023-04-03T01:08:34.607Z,0.35
2023-04-03T01:09:34.601Z,0.29
2023-04-03T01:10:34.712Z,0.28
2023-04-03T01:11:34.557Z,0.20
2023-04-03T01:12:34.539Z,0.23
2023-04-03T01:13:34.514Z,0.21
2023-04-03T01:14:34.497Z,0.28
2023-04-03T01:15:34.488Z,0.25
2023-04-03T01:16:34.538Z,0.38
2023-04-03T01:17:34.514Z,0.38
2023-04-03T01:18:34.419Z,0.30
2023-04-03T01:19:34.432Z,0.28
2023-04-03T01:20:34.836Z,0.33
2023-04-03T01:21:34.452Z,0.17
2023-04-03T01:22:34.481Z,0.23
2023-04-03T01:23:34.506Z,0.23
2023-04-03T01:24:34.529Z,0.34
2023-04-03T01:25:34.559Z,0.30
2023-04-03T01:26:34.572Z,0.33
2023-04-03T01:27:34.600Z,0.23
2023-04-03T01:28:34.612Z,0.38
2023-04-03T01:29:34.649Z,0.28
2023-04-03T01:30:35.068Z,0.22
2023-04-03T01:31:34.738Z,0.40
2023-04-03T01:32:34.762Z,0.37
2023-04-03T01:33:34.719Z,0.33
2023-04-03T01:34:34.747Z,0.40
2023-04-03T01:35:34.772Z,0.34
2023-04-03T01:36:34.769Z,0.25
2023-04-03T01:37:34.795Z,0.20
2023-04-03T01:38:34.816Z,0.25
2023-04-03T01:39:34.851Z,0.16
2023-04-03T01:40:35.250Z,0.23
2023-04-03T01:41:34.881Z,0.15
2023-04-03T01:42:34.918Z,0.26
2023-04-03T01:43:34.934Z,0.27
2023-04-03T01:44:34.966Z,0.18
2023-04-03T01:45:34.994Z,0.21
2023-04-03T01:46:35.007Z,0.15
2023-04-03T01:47:35.053Z,0.24
2023-04-03T01:48:35.071Z,0.26
2023-04-03T01:49:35.074Z,0.23
2023-04-03T01:50:35.468Z,0.27
2023-04-03T01:51:35.105Z,0.30
2023-04-03T01:52:35.141Z,0.33
2023-04-03T01:53:35.153Z,0.20
2023-04-03T01:54:35.178Z,0.25
2023-04-03T01:55:35.191Z,0.29
2023-04-03T01:56:35.217Z,0.25
2023-04-03T01:57:35.292Z,0.27
2023-04-03T01:58:35.265Z,0.44
2023-04-03T01:59:35.287Z,0.36
2023-04-03T02:00:35.573Z,0.39
2023-04-03T02:01:35.402Z,0.30
2023-04-03T02:02:35.426Z,0.08
2023-04-03T02:03:35.526Z,0.23
2023-04-03T02:04:35.423Z,0.32
2023-04-03T02:05:35.405Z,0.21
2023-04-03T02:06:35.429Z,0.26
2023-04-03T02:07:35.449Z,0.18
2023-04-03T02:08:35.466Z,0.26
2023-04-03T02:09:35.487Z,0.31
2023-04-03T02:10:35.817Z,0.38
2023-04-03T02:11:35.560Z,0.24
2023-04-03T02:12:35.561Z,0.27
2023-04-03T02:13:35.583Z,0.28
2023-04-03T02:14:35.609Z,0.17
2023-04-03T02:15:35.625Z,0.32
2023-04-03T02:16:35.673Z,0.20
2023-04-03T02:17:35.725Z,0.22
2023-04-03T02:18:35.693Z,0.31
2023-04-03T02:19:35.712Z,0.31
2023-04-03T02:20:36.095Z,0.24
2023-04-03T02:21:35.724Z,0.39
2023-04-03T02:22:35.739Z,0.30
2023-04-03T02:23:35.770Z,0.32
2023-04-03T02:24:35.802Z,0.36
2023-04-03T02:25:38.488Z,0.14
2023-04-03T02:26:35.805Z,0.22
2023-04-03T02:27:35.777Z,0.24
2023-04-03T02:28:35.780Z,0.18
2023-04-03T02:29:35.766Z,0.20
2023-04-03T02:30:36.064Z,0.34
2023-04-03T02:31:35.767Z,0.31
2023-04-03T02:32:35.835Z,0.29
2023-04-03T02:33:35.751Z,0.15
2023-04-03T02:34:35.710Z,0.27
2023-04-03T02:35:35.740Z,0.41
2023-04-03T02:36:35.711Z,0.23
2023-04-03T02:37:35.664Z,0.20
2023-04-03T02:38:35.650Z,0.22
2023-04-03T02:39:35.645Z,0.22
2023-04-03T02:40:35.978Z,0.25
2023-04-03T02:41:35.610Z,0.28
2023-04-03T02:42:35.584Z,0.22
2023-04-03T02:43:35.594Z,0.25
2023-04-03T02:44:35.556Z,0.22
2023-04-03T02:45:35.540Z,0.11
2023-04-03T02:46:35.559Z,0.20
2023-04-03T02:47:35.561Z,0.18
2023-04-03T02:48:35.479Z,0.27
2023-04-03T02:49:35.478Z,0.18
2023-04-03T02:50:35.731Z,0.13
2023-04-03T02:51:35.449Z,0.21
2023-04-03T02:52:35.464Z,0.26
2023-04-03T02:53:35.435Z,0.33
2023-04-03T02:54:35.417Z,0.21
2023-04-03T02:55:35.404Z,0.28
2023-04-03T02:56:35.421Z,0.14
2023-04-03T02:57:35.474Z,0.31
2023-04-03T02:58:35.469Z,0.28
2023-04-03T02:59:35.485Z,0.33
2023-04-03T03:00:35.847Z,0.30
2023-04-03T03:01:35.570Z,0.29
2023-04-03T03:02:35.631Z,0.28
2023-04-03T03:03:35.574Z,0.32
2023-04-03T03:04:35.599Z,0.22
2023-04-03T03:05:35.621Z,0.31
2023-04-03T03:06:35.629Z,0.23
2023-04-03T03:07:35.675Z,0.42
2023-04-03T03:08:35.709Z,0.36
2023-04-03T03:09:35.713Z,0.26
2023-04-03T03:10:36.088Z,0.17
2023-04-03T03:11:35.753Z,0.28
2023-04-03T03:12:35.778Z,0.24
2023-04-03T03:13:35.794Z,0.26
2023-04-03T03:14:35.824Z,0.18
2023-04-03T03:15:35.848Z,0.21
2023-04-03T03:16:35.863Z,0.36
2023-04-03T03:17:35.923Z,0.32
2023-04-03T03:18:35.901Z,0.20
2023-04-03T03:19:35.924Z,0.24
2023-04-03T03:20:36.199Z,0.29
2023-04-03T03:21:35.940Z,0.26
2023-04-03T03:22:35.969Z,0.22
2023-04-03T03:23:35.979Z,0.33
2023-04-03T03:24:36.022Z,0.31
2023-04-03T03:25:36.314Z,0.22
2023-04-03T03:26:36.024Z,0.23
2023-04-03T03:27:36.037Z,0.38
2023-04-03T03:28:36.051Z,0.22
2023-04-03T03:29:36.067Z,0.20
2023-04-03T03:30:36.083Z,0.42
2023-04-03T03:31:36.186Z,0.31
2023-04-03T03:32:36.141Z,0.28
2023-04-03T03:33:36.126Z,0.31
2023-04-03T03:34:36.141Z,0.25
2023-04-03T03:35:36.523Z,0.19
2023-04-03T03:36:36.191Z,0.27
2023-04-03T03:37:36.203Z,0.28
2023-04-03T03:38:36.223Z,0.22
2023-04-03T03:39:36.224Z,0.39
2023-04-03T03:40:36.263Z,0.34
2023-04-03T03:41:36.266Z,0.26
2023-04-03T03:42:36.266Z,0.15
2023-04-03T03:43:36.310Z,0.28
2023-04-03T03:44:36.295Z,0.05
2023-04-03T03:45:36.560Z,0.31
2023-04-03T03:46:36.357Z,0.27
2023-04-03T03:47:36.371Z,0.25
2023-04-03T03:48:36.331Z,0.38
2023-04-03T03:49:36.348Z,0.20
2023-04-03T03:50:36.363Z,0.19
2023-04-03T03:51:36.379Z,0.24
2023-04-03T03:52:36.415Z,0.26
2023-04-03T03:53:36.419Z,0.27
2023-04-03T03:54:36.428Z,0.39
2023-04-03T03:55:36.586Z,0.60
2023-04-03T03:56:36.543Z,0.39
2023-04-03T03:57:36.489Z,0.21
2023-04-03T03:58:36.505Z,0.25
2023-04-03T03:59:36.524Z,0.35
2023-04-03T04:00:36.544Z,0.22
2023-04-03T04:01:36.622Z,0.24
2023-04-03T04:02:36.831Z,0.23
2023-04-03T04:03:36.678Z,0.13
2023-04-03T04:04:36.635Z,0.29
2023-04-03T04:05:36.871Z,0.28
2023-04-03T04:06:36.687Z,0.28
2023-04-03T04:07:36.717Z,0.18
2023-04-03T04:08:36.732Z,0.21
2023-04-03T04:09:36.757Z,0.40
2023-04-03T04:10:36.784Z,0.22
2023-04-03T04:11:36.814Z,0.31
2023-04-03T04:12:36.868Z,0.25
2023-04-03T04:13:36.850Z,0.35
2023-04-03T04:14:36.875Z,0.30
2023-04-03T04:15:37.199Z,0.15
2023-04-03T04:16:36.933Z,0.44
2023-04-03T04:17:36.996Z,0.19
2023-04-03T04:18:36.975Z,0.38
2023-04-03T04:19:36.969Z,0.19
2023-04-03T04:20:36.986Z,0.33
2023-04-03T04:21:37.012Z,0.35
2023-04-03T04:22:37.038Z,0.30
2023-04-03T04:23:37.062Z,0.65
2023-04-03T04:24:38.561Z,0.46
2023-04-03T04:25:37.223Z,0.18
2023-04-03T04:26:37.083Z,0.88
2023-04-03T04:27:37.058Z,0.17
2023-04-03T04:28:37.086Z,0.16
2023-04-03T04:29:37.026Z,0.25
2023-04-03T04:30:37.024Z,0.17
2023-04-03T04:31:37.006Z,0.46
2023-04-03T04:32:37.024Z,0.79
2023-04-03T04:33:36.990Z,0.25
2023-04-03T04:34:37.047Z,0.45
2023-04-03T04:35:37.224Z,0.45
2023-04-03T04:36:37.075Z,0.24
2023-04-03T04:37:36.958Z,0.17
2023-04-03T04:38:36.930Z,0.23
2023-04-03T04:39:36.940Z,0.30
2023-04-03T04:40:36.906Z,0.32
2023-04-03T04:41:36.905Z,0.32
2023-04-03T04:42:36.893Z,0.50
2023-04-03T04:43:36.885Z,0.55
2023-04-03T04:44:36.880Z,0.21
2023-04-03T04:45:37.024Z,0.17
2023-04-03T04:46:36.947Z,0.46
2023-04-03T04:47:36.839Z,0.32
2023-04-03T04:48:36.812Z,0.32
2023-04-03T04:49:36.806Z,0.39
2023-04-03T04:50:36.787Z,0.54
2023-04-03T04:51:48.323Z,0.36
2023-04-03T04:52:36.762Z,0.32
2023-04-03T04:53:36.752Z,0.34
2023-04-03T04:54:36.741Z,0.15
2023-04-03T04:55:36.918Z,0.18
2023-04-03T04:56:36.709Z,0.24
2023-04-03T04:57:36.837Z,0.35
2023-04-03T04:58:36.673Z,0.34
2023-04-03T04:59:36.659Z,0.34
2023-04-03T05:00:36.667Z,0.26
2023-04-03T05:01:36.650Z,0.31
2023-04-03T05:02:36.623Z,0.24
2023-04-03T05:03:36.593Z,0.25
2023-04-03T05:04:36.655Z,0.40
2023-04-03T05:05:36.832Z,0.22
2023-04-03T05:06:36.550Z,0.32
2023-04-03T05:07:36.544Z,0.31
2023-04-03T05:08:36.509Z,0.34
2023-04-03T05:09:36.494Z,0.26
2023-04-03T05:10:36.481Z,0.21
2023-04-03T05:11:36.471Z,0.20
2023-04-03T05:12:36.458Z,0.34
2023-04-03T05:13:36.433Z,0.19
2023-04-03T05:14:36.422Z,0.47
2023-04-03T05:15:36.684Z,0.24
2023-04-03T05:16:36.446Z,0.27
2023-04-03T05:17:36.397Z,0.31
2023-04-03T05:18:36.358Z,0.18
2023-04-03T05:19:36.338Z,0.31
2023-04-03T05:20:36.318Z,0.37
2023-04-03T05:21:36.317Z,0.39
2023-04-03T05:22:36.293Z,0.31
2023-04-03T05:23:36.276Z,0.31
2023-04-03T05:24:36.264Z,0.40
2023-04-03T05:25:36.367Z,0.20
2023-04-03T05:26:36.238Z,0.49
2023-04-03T05:27:36.227Z,0.31
2023-04-03T05:28:36.202Z,0.34
2023-04-03T05:29:36.181Z,0.36
2023-04-03T05:30:36.164Z,0.17
2023-04-03T05:31:36.201Z,0.34
2023-04-03T05:32:36.245Z,0.24
2023-04-03T05:33:36.218Z,0.21
2023-04-03T05:34:36.245Z,0.29
2023-04-03T05:35:36.530Z,0.26
2023-04-03T05:36:36.289Z,0.23
2023-04-03T05:37:36.306Z,0.21
2023-04-03T05:38:36.342Z,0.44
2023-04-03T05:39:36.357Z,0.56
2023-04-03T05:40:36.388Z,0.23
2023-04-03T05:41:36.401Z,0.44
2023-04-03T05:42:36.418Z,0.32
2023-04-03T05:43:36.431Z,0.39
2023-04-03T05:44:36.461Z,0.44
2023-04-03T05:45:36.514Z,0.30
2023-04-03T05:46:36.496Z,0.26
2023-04-03T05:47:36.533Z,0.17
2023-04-03T05:48:36.551Z,0.20
2023-04-03T05:49:36.559Z,0.40
2023-04-03T05:50:36.564Z,0.35
2023-04-03T05:51:36.589Z,0.31
2023-04-03T05:52:36.603Z,0.23
2023-04-03T05:53:36.619Z,0.35
2023-04-03T05:54:36.638Z,0.42
2023-04-03T05:55:36.957Z,0.36
2023-04-03T05:56:36.692Z,0.23
2023-04-03T05:57:37.052Z,0.18
2023-04-03T05:58:36.709Z,0.34
2023-04-03T05:59:36.721Z,0.31
2023-04-03T06:00:36.743Z,0.35
2023-04-03T06:01:36.770Z,0.47
2023-04-03T06:02:36.904Z,0.31
2023-04-03T06:03:38.786Z,0.26
2023-04-03T06:04:37.045Z,0.23
2023-04-03T06:05:37.136Z,0.25
2023-04-03T06:06:36.772Z,0.34
2023-04-03T06:07:36.754Z,0.31
2023-04-03T06:08:36.751Z,0.28
2023-04-03T06:09:36.739Z,0.34
2023-04-03T06:10:36.972Z,0.27
2023-04-03T06:11:36.714Z,0.35
2023-04-03T06:12:36.722Z,0.45
2023-04-03T06:13:36.688Z,0.41
2023-04-03T06:14:36.673Z,0.49
2023-04-03T06:15:36.673Z,0.29
2023-04-03T06:16:38.916Z,0.36
2023-04-03T06:17:36.698Z,0.39
2023-04-03T06:18:36.641Z,0.37
2023-04-03T06:19:36.626Z,0.34
2023-04-03T06:20:37.092Z,0.21
2023-04-03T06:21:36.612Z,0.22
2023-04-03T06:22:36.603Z,0.36
2023-04-03T06:23:36.600Z,0.57
2023-04-03T06:24:36.585Z,0.33
2023-04-03T06:25:36.580Z,0.46
2023-04-03T06:26:36.571Z,0.32
2023-04-03T06:27:36.557Z,0.47
2023-04-03T06:28:36.541Z,0.29
2023-04-03T06:29:36.530Z,0.28
2023-04-03T06:30:36.874Z,0.43
2023-04-03T06:31:36.570Z,0.43
2023-04-03T06:32:36.543Z,0.45
2023-04-03T06:33:36.613Z,0.57
2023-04-03T06:34:36.494Z,0.56
2023-04-03T06:35:36.533Z,0.53
2023-04-03T06:36:36.490Z,0.16
2023-04-03T06:37:36.456Z,0.50
2023-04-03T06:38:36.439Z,0.41
2023-04-03T06:39:36.455Z,0.43
2023-04-03T06:40:36.655Z,0.52
2023-04-03T06:41:37.224Z,0.41
2023-04-03T06:42:36.396Z,0.36
2023-04-03T06:43:36.368Z,0.40
2023-04-03T06:44:36.359Z,0.43
2023-04-03T06:45:36.546Z,0.35
2023-04-03T06:46:36.385Z,0.36
2023-04-03T06:47:36.375Z,0.43
2023-04-03T06:48:36.367Z,0.35
2023-04-03T06:49:36.385Z,0.57
2023-04-03T06:50:36.406Z,0.32
2023-04-03T06:51:36.459Z,0.31
2023-04-03T06:52:36.477Z,0.35
2023-04-03T06:53:36.474Z,0.42
2023-04-03T06:54:36.493Z,0.48
2023-04-03T06:55:36.920Z,0.41
2023-04-03T06:56:36.529Z,0.32
2023-04-03T06:57:36.590Z,0.37
2023-04-03T06:58:36.574Z,0.42
2023-04-03T06:59:36.578Z,0.65
2023-04-03T07:00:36.626Z,0.65
2023-04-03T07:01:36.663Z,0.45
2023-04-03T07:02:36.660Z,0.72
2023-04-03T07:03:36.682Z,0.32
2023-04-03T07:04:36.722Z,0.47
2023-04-03T07:05:37.011Z,0.49
2023-04-03T07:06:36.722Z,0.44
2023-04-03T07:07:36.746Z,0.63
2023-04-03T07:08:36.796Z,0.33
2023-04-03T07:09:36.779Z,0.28
2023-04-03T07:10:36.794Z,0.57
2023-04-03T07:11:36.812Z,0.40
2023-04-03T07:12:36.836Z,0.42
2023-04-03T07:13:36.886Z,0.39
2023-04-03T07:14:36.869Z,0.32
2023-04-03T07:15:37.511Z,0.44
2023-04-03T07:16:38.747Z,0.50
2023-04-03T07:17:36.960Z,0.34
2023-04-03T07:18:37.081Z,0.60
2023-04-03T07:19:36.862Z,0.54
2023-04-03T07:20:36.915Z,0.51
2023-04-03T07:21:36.854Z,0.35
2023-04-03T07:22:36.844Z,0.22
2023-04-03T07:23:36.956Z,0.32
2023-04-03T07:24:37.405Z,0.57
2023-04-03T07:25:36.985Z,0.72
2023-04-03T07:26:36.960Z,0.57
2023-04-03T07:27:36.833Z,0.39
2023-04-03T07:28:36.822Z,0.40
2023-04-03T07:29:36.791Z,0.35
2023-04-03T07:30:36.777Z,0.45
2023-04-03T07:31:36.875Z,0.60
2023-04-03T07:32:36.823Z,0.57
2023-04-03T07:33:37.045Z,0.48
2023-04-03T07:34:37.241Z,0.40
2023-04-03T07:35:37.217Z,0.44
2023-04-03T07:36:37.433Z,0.42
2023-04-03T07:37:36.895Z,0.62
2023-04-03T07:38:36.916Z,0.61
2023-04-03T07:39:36.947Z,0.34
2023-04-03T07:40:37.013Z,0.32
2023-04-03T07:41:36.982Z,0.43
2023-04-03T07:42:37.010Z,0.45
2023-04-03T07:43:37.029Z,0.36
2023-04-03T07:44:37.052Z,0.69
2023-04-03T07:45:37.328Z,0.54
2023-04-03T07:46:37.088Z,0.41
2023-04-03T07:47:37.138Z,0.40
2023-04-03T07:48:37.131Z,0.41
2023-04-03T07:49:37.168Z,0.33
2023-04-03T07:50:37.198Z,0.36
2023-04-03T07:51:37.231Z,0.62
2023-04-03T07:52:37.210Z,0.52
2023-04-03T07:53:37.235Z,0.72
2023-04-03T07:54:37.252Z,0.63
2023-04-03T07:55:37.569Z,0.49
2023-04-03T07:56:37.467Z,0.60
2023-04-03T07:57:37.425Z,0.49
2023-04-03T07:58:37.354Z,0.60
2023-04-03T07:59:37.365Z,0.74
2023-04-03T08:00:37.397Z,0.64
2023-04-03T08:01:37.410Z,0.44
2023-04-03T08:02:37.452Z,0.54
2023-04-03T08:03:37.544Z,0.50
2023-04-03T08:04:37.548Z,0.48
2023-04-03T08:05:37.763Z,0.27
2023-04-03T08:06:45.551Z,0.51
2023-04-03T08:07:37.490Z,0.39
2023-04-03T08:08:37.469Z,0.55
2023-04-03T08:09:37.442Z,0.51
2023-04-03T08:10:37.435Z,0.45
2023-04-03T08:11:37.420Z,0.80
2023-04-03T08:12:37.506Z,0.40
2023-04-03T08:13:37.396Z,0.77
2023-04-03T08:14:37.378Z,0.61
2023-04-03T08:15:37.524Z,0.70
2023-04-03T08:16:37.344Z,0.44
2023-04-03T08:17:37.351Z,0.61
2023-04-03T08:18:37.305Z,0.52
2023-04-03T08:19:37.296Z,0.45
2023-04-03T08:20:37.293Z,0.69
2023-04-03T08:21:37.267Z,0.60
2023-04-03T08:22:37.265Z,0.59
2023-04-03T08:23:37.239Z,0.53
2023-04-03T08:24:39.200Z,0.53
2023-04-03T08:25:37.414Z,0.74
2023-04-03T08:26:37.201Z,0.67
2023-04-03T08:27:37.192Z,0.55
2023-04-03T08:28:37.375Z,0.71
2023-04-03T08:29:37.161Z,0.59
2023-04-03T08:30:37.252Z,0.75
2023-04-03T08:31:37.121Z,0.67
2023-04-03T08:32:37.195Z,0.53
2023-04-03T08:33:37.125Z,0.66
2023-04-03T08:34:37.079Z,0.84
2023-04-03T08:35:38.163Z,0.64
2023-04-03T08:36:37.077Z,0.48
2023-04-03T08:37:37.059Z,0.45
2023-04-03T08:38:37.033Z,0.44
2023-04-03T08:39:37.023Z,0.55
2023-04-03T08:40:37.006Z,0.88
2023-04-03T08:41:36.989Z,0.56
2023-04-03T08:42:36.962Z,0.59
2023-04-03T08:43:36.975Z,0.58
2023-04-03T08:44:37.483Z,0.59
2023-04-03T08:45:37.106Z,0.96
2023-04-03T08:46:37.056Z,0.72
2023-04-03T08:47:36.967Z,0.56
2023-04-03T08:48:36.963Z,0.72
2023-04-03T08:49:37.044Z,0.55
2023-04-03T08:50:36.975Z,0.56
2023-04-03T08:51:36.989Z,0.63
2023-04-03T08:52:36.994Z,0.91
2023-04-03T08:53:37.000Z,0.64
2023-04-03T08:54:37.016Z,0.98
2023-04-03T08:55:37.226Z,1.15
2023-04-03T08:56:37.032Z,0.72
2023-04-03T08:57:37.066Z,1.08
2023-04-03T08:58:37.046Z,0.39
2023-04-03T08:59:37.050Z,0.76
2023-04-03T09:00:37.181Z,0.61
2023-04-03T09:01:37.102Z,0.75
2023-04-03T09:02:37.078Z,0.74
2023-04-03T09:03:37.082Z,0.73
2023-04-03T09:04:37.091Z,0.77
2023-04-03T09:05:37.368Z,0.73
2023-04-03T09:06:38.706Z,0.74
2023-04-03T09:07:37.064Z,0.57
2023-04-03T09:08:37.048Z,0.81
2023-04-03T09:09:37.039Z,0.80
2023-04-03T09:10:37.176Z,0.71
2023-04-03T09:11:37.004Z,0.88
2023-04-03T09:12:36.987Z,0.92
2023-04-03T09:13:36.971Z,0.72
2023-04-03T09:14:36.966Z,0.87
2023-04-03T09:15:39.337Z,0.73
2023-04-03T09:16:37.037Z,0.84
2023-04-03T09:17:36.955Z,0.57
2023-04-03T09:18:36.895Z,1.14
2023-04-03T09:19:36.919Z,1.28
2023-04-03T09:20:37.082Z,0.75
2023-04-03T09:21:36.845Z,0.70
2023-04-03T09:22:45.677Z,0.62
2023-04-03T09:23:36.836Z,0.74
2023-04-03T09:24:36.798Z,1.02
2023-04-03T09:25:36.803Z,0.92
2023-04-03T09:26:36.784Z,0.89
2023-04-03T09:27:36.851Z,0.82
2023-04-03T09:28:46.911Z,0.88
2023-04-03T09:29:36.749Z,0.82
2023-04-03T09:30:37.011Z,0.88
2023-04-03T09:31:36.729Z,0.80
2023-04-03T09:32:36.816Z,0.74
2023-04-03T09:33:36.684Z,0.92
2023-04-03T09:34:36.673Z,0.95
2023-04-03T09:35:47.543Z,0.91
2023-04-03T09:36:36.643Z,0.80
2023-04-03T09:37:37.363Z,0.93
2023-04-03T09:38:36.616Z,0.79
2023-04-03T09:39:36.592Z,1.01
2023-04-03T09:40:37.097Z,1.01
2023-04-03T09:41:36.577Z,0.84
2023-04-03T09:42:36.542Z,0.85
2023-04-03T09:43:36.530Z,0.95
2023-04-03T09:44:36.523Z,0.96
2023-04-03T09:45:36.496Z,0.99
2023-04-03T09:46:36.589Z,0.98
2023-04-03T09:47:36.485Z,0.94
2023-04-03T09:48:36.584Z,1.12
2023-04-03T09:49:36.446Z,0.89
2023-04-03T09:50:36.738Z,0.75
2023-04-03T09:51:36.416Z,1.41
2023-04-03T09:52:38.723Z,1.17
2023-04-03T09:53:36.385Z,0.79
2023-04-03T09:54:36.385Z,0.96
2023-04-03T09:55:36.361Z,1.02
2023-04-03T09:56:36.360Z,0.94
2023-04-03T09:57:36.445Z,0.96
2023-04-03T09:58:49.161Z,0.91
2023-04-03T09:59:36.339Z,0.76
2023-04-03T10:00:36.666Z,1.07
2023-04-03T10:01:36.436Z,0.86
2023-04-03T10:02:36.318Z,0.79
2023-04-03T10:03:36.281Z,1.27
2023-04-03T10:04:36.470Z,0.95
2023-04-03T10:05:36.310Z,0.82
2023-04-03T10:06:36.239Z,1.03
2023-04-03T10:07:36.218Z,1.15
2023-04-03T10:08:36.210Z,0.98
2023-04-03T10:09:36.209Z,1.07
2023-04-03T10:10:36.371Z,1.01
2023-04-03T10:11:36.173Z,1.20
2023-04-03T10:12:36.167Z,1.11
2023-04-03T10:13:45.097Z,1.12
2023-04-03T10:14:36.131Z,1.00
2023-04-03T10:15:36.104Z,0.94
2023-04-03T10:16:36.104Z,1.22
2023-04-03T10:17:36.079Z,1.07
2023-04-03T10:18:36.068Z,1.01
2023-04-03T10:19:36.050Z,1.04
2023-04-03T10:20:36.181Z,0.86
2023-04-03T10:21:36.023Z,0.97
2023-04-03T10:22:36.008Z,1.03
2023-04-03T10:23:35.993Z,1.25
2023-04-03T10:24:35.979Z,0.70
2023-04-03T10:25:35.971Z,0.93
2023-04-03T10:26:35.979Z,1.03
2023-04-03T10:27:35.939Z,1.26
2023-04-03T10:28:35.928Z,1.14
2023-04-03T10:29:35.913Z,1.33
2023-04-03T10:30:36.117Z,1.23
2023-04-03T10:31:35.951Z,1.01
2023-04-03T10:32:35.896Z,0.94
2023-04-03T10:33:35.868Z,0.99
2023-04-03T10:34:35.851Z,1.20
2023-04-03T10:35:35.849Z,1.03
2023-04-03T10:36:35.944Z,1.00
2023-04-03T10:37:35.802Z,0.88
2023-04-03T10:38:35.786Z,1.04
2023-04-03T10:39:35.774Z,1.02
2023-04-03T10:40:36.097Z,1.14
2023-04-03T10:41:35.745Z,1.49
2023-04-03T10:42:35.740Z,1.07
2023-04-03T10:43:35.737Z,1.08
2023-04-03T10:44:35.720Z,1.22
2023-04-03T10:45:35.714Z,1.18
2023-04-03T10:46:35.731Z,1.00
2023-04-03T10:47:37.959Z,1.18
2023-04-03T10:48:35.666Z,0.99
2023-04-03T10:49:35.657Z,0.99
2023-04-03T10:50:36.017Z,1.04
2023-04-03T10:51:35.637Z,1.04
2023-04-03T10:52:35.753Z,0.98
2023-04-03T10:53:35.619Z,1.26
2023-04-03T10:54:35.611Z,1.25
2023-04-03T10:55:35.604Z,0.91
2023-04-03T10:56:35.588Z,0.93
2023-04-03T10:57:35.610Z,1.15
2023-04-03T10:58:35.581Z,1.19
2023-04-03T10:59:35.552Z,1.30
2023-04-03T11:00:35.812Z,0.99
2023-04-03T11:01:35.612Z,1.14
2023-04-03T11:02:35.593Z,1.48
2023-04-03T11:03:35.579Z,1.10
2023-04-03T11:04:35.480Z,1.30
2023-04-03T11:05:35.493Z,0.87
2023-04-03T11:06:35.457Z,1.14
2023-04-03T11:07:35.449Z,1.08
2023-04-03T11:08:35.685Z,0.88
2023-04-03T11:09:35.421Z,1.06
2023-04-03T11:10:35.422Z,0.93
2023-04-03T11:11:35.394Z,0.84
2023-04-03T11:12:35.376Z,1.06
2023-04-03T11:13:35.403Z,1.08
2023-04-03T11:14:35.357Z,1.01
2023-04-03T11:15:35.450Z,0.92
2023-04-03T11:16:43.488Z,1.17
2023-04-03T11:17:35.386Z,0.92
2023-04-03T11:18:35.310Z,1.13
2023-04-03T11:19:35.300Z,1.00
2023-04-03T11:20:35.450Z,0.75
2023-04-03T11:21:35.273Z,0.93
2023-04-03T11:22:35.274Z,1.07
2023-04-03T11:23:45.899Z,1.04
2023-04-03T11:24:35.375Z,1.36
2023-04-03T11:25:35.369Z,1.34
2023-04-03T11:26:35.204Z,0.93
2023-04-03T11:27:35.199Z,1.30
2023-04-03T11:28:35.200Z,0.98
2023-04-03T11:29:35.987Z,1.03
2023-04-03T11:30:35.159Z,1.00
2023-04-03T11:31:35.229Z,0.95
2023-04-03T11:32:35.188Z,1.10
2023-04-03T11:33:35.116Z,1.08
2023-04-03T11:34:35.108Z,0.99
2023-04-03T11:35:35.205Z,0.96
2023-04-03T11:36:37.279Z,0.80
2023-04-03T11:37:35.093Z,1.00
2023-04-03T11:38:35.073Z,0.98
2023-04-03T11:39:35.064Z,1.08
2023-04-03T11:40:35.075Z,1.00
2023-04-03T11:41:35.031Z,1.13
2023-04-03T11:42:35.119Z,1.04
2023-04-03T11:43:35.015Z,0.86
2023-04-03T11:44:35.007Z,0.98
2023-04-03T11:45:37.341Z,1.18
2023-04-03T11:46:35.058Z,1.04
2023-04-03T11:47:34.996Z,0.88
2023-04-03T11:48:34.990Z,0.70
2023-04-03T11:49:34.936Z,1.13
2023-04-03T11:50:34.915Z,0.90
2023-04-03T11:51:34.910Z,1.07
2023-04-03T11:52:34.899Z,1.06
2023-04-03T11:53:34.884Z,1.17
2023-04-03T11:54:42.185Z,0.79
2023-04-03T11:55:35.012Z,0.93
2023-04-03T11:56:34.953Z,1.03
2023-04-03T11:57:34.857Z,1.09
2023-04-03T11:58:34.809Z,1.08
2023-04-03T11:59:34.791Z,0.80
2023-04-03T12:00:34.781Z,1.06
2023-04-03T12:01:34.771Z,1.05
2023-04-03T12:02:44.259Z,0.81
2023-04-03T12:03:34.854Z,1.07
2023-04-03T12:04:34.828Z,0.86
2023-04-03T12:05:34.824Z,1.11
2023-04-03T12:06:34.722Z,0.94
2023-04-03T12:07:34.708Z,1.21
2023-04-03T12:08:34.720Z,1.06
2023-04-03T12:09:34.697Z,0.82
2023-04-03T12:10:34.710Z,1.12
2023-04-03T12:11:34.659Z,1.05
2023-04-03T12:12:34.762Z,0.95
2023-04-03T12:13:34.613Z,0.93
2023-04-03T12:14:34.602Z,0.69
2023-04-03T12:15:34.582Z,1.09
2023-04-03T12:16:34.590Z,1.13
2023-04-03T12:17:34.559Z,0.87
2023-04-03T12:18:34.547Z,0.74
2023-04-03T12:19:42.661Z,0.93
2023-04-03T12:20:34.510Z,1.14
2023-04-03T12:21:34.513Z,1.08
2023-04-03T12:22:34.491Z,1.05
2023-04-03T12:23:34.536Z,0.77
2023-04-03T12:24:34.467Z,1.18
2023-04-03T12:25:34.463Z,0.99
2023-04-03T12:26:42.078Z,0.94
2023-04-03T12:27:34.446Z,0.92
2023-04-03T12:28:34.560Z,0.99
2023-04-03T12:29:34.534Z,1.05
2023-04-03T12:30:34.413Z,1.10
2023-04-03T12:31:34.416Z,1.14
2023-04-03T12:32:34.447Z,1.10
2023-04-03T12:33:34.494Z,0.95
2023-04-03T12:34:34.395Z,1.21
2023-04-03T12:35:34.423Z,0.91
2023-04-03T12:36:34.366Z,0.91
2023-04-03T12:37:34.383Z,0.75
2023-04-03T12:38:34.342Z,0.86
2023-04-03T12:39:34.335Z,1.03
2023-04-03T12:40:34.323Z,0.81
2023-04-03T12:41:34.317Z,0.87
2023-04-03T12:42:34.336Z,1.03
2023-04-03T12:43:34.291Z,1.14
2023-04-03T12:44:34.318Z,1.22
2023-04-03T12:45:34.299Z,0.79
2023-04-03T12:46:34.345Z,0.82
2023-04-03T12:47:34.420Z,0.83
2023-04-03T12:48:34.243Z,0.92
2023-04-03T12:49:34.251Z,1.19
2023-04-03T12:50:34.236Z,0.83
2023-04-03T12:51:34.233Z,0.83
2023-04-03T12:52:34.219Z,0.96
2023-04-03T12:53:34.206Z,0.91
2023-04-03T12:54:34.204Z,0.72
2023-04-03T12:55:34.198Z,1.16
2023-04-03T12:56:34.198Z,0.93
2023-04-03T12:57:34.228Z,0.85
2023-04-03T12:58:34.186Z,0.90
2023-04-03T12:59:34.170Z,1.09
2023-04-03T13:00:34.222Z,1.09
2023-04-03T13:01:34.180Z,0.99
2023-04-03T13:02:34.208Z,0.74
2023-04-03T13:03:34.173Z,0.86
2023-04-03T13:04:34.122Z,0.99
2023-04-03T13:05:36.722Z,0.94
2023-04-03T13:06:34.097Z,1.00
2023-04-03T13:07:34.093Z,0.91
2023-04-03T13:08:34.075Z,1.12
2023-04-03T13:09:34.065Z,1.12
2023-04-03T13:10:34.240Z,0.85
2023-04-03T13:11:33.048Z,0.62
2023-04-03T13:12:35.838Z,0.65
2023-04-03T13:13:34.043Z,1.02
2023-04-03T13:14:34.053Z,0.93
2023-04-03T13:15:34.024Z,1.14
2023-04-03T13:16:34.363Z,0.92
2023-04-03T13:17:34.011Z,1.05
2023-04-03T13:18:34.015Z,1.01